createdAt,value
2022-09-29T00:00:57.186Z,5.60
2022-09-29T00:03:25.147Z,5.55
2022-09-29T00:05:56.576Z,6.57
2022-09-29T00:08:26.465Z,5.50
2022-09-29T00:10:54.580Z,4.75
2022-09-29T00:13:23.311Z,4.40
2022-09-29T00:15:59.044Z,5.55
2022-09-29T00:18:27.399Z,4.10
2022-09-29T00:21:01.467Z,4.00
2022-09-29T00:23:31.126Z,6.35
2022-09-29T00:26:07.498Z,4.68
2022-09-29T00:28:37.361Z,4.85
2022-09-29T00:31:07.273Z,6.25
2022-09-29T00:33:37.023Z,6.22
2022-09-29T00:36:10.663Z,5.30
2022-09-29T00:38:38.616Z,6.32
2022-09-29T00:41:07.359Z,6.13
2022-09-29T00:43:54.640Z,7.13
2022-09-29T00:46:28.851Z,8.02
2022-09-29T00:48:59.257Z,6.05
2022-09-29T00:51:30.816Z,5.65
2022-09-29T00:54:00.249Z,5.70
2022-09-29T00:56:29.445Z,4.95
2022-09-29T00:59:01.189Z,4.40
2022-09-29T01:01:32.190Z,4.10
2022-09-29T01:04:05.987Z,4.40
2022-09-29T01:06:39.921Z,4.50
2022-09-29T01:09:11.150Z,4.40
2022-09-29T01:11:39.077Z,4.88
2022-09-29T01:14:10.435Z,4.07
2022-09-29T01:16:42.141Z,5.80
2022-09-29T01:19:16.221Z,8.27
2022-09-29T01:22:04.283Z,7.13
2022-09-29T01:24:57.909Z,12.05
2022-09-29T01:27:49.893Z,7.57
2022-09-29T01:30:22.269Z,5.60
2022-09-29T01:33:24.350Z,5.85
2022-09-29T01:36:04.327Z,5.35
2022-09-29T01:38:46.789Z,5.57
2022-09-29T01:41:24.193Z,5.78
2022-09-29T01:43:58.974Z,5.38
2022-09-29T01:46:32.432Z,5.25
2022-09-29T01:49:05.235Z,5.35
2022-09-29T01:51:39.302Z,5.47
2022-09-29T01:54:13.152Z,6.32
2022-09-29T01:56:47.326Z,5.03
2022-09-29T01:59:20.615Z,4.43
2022-09-29T02:01:52.529Z,5.53
2022-09-29T02:04:27.330Z,4.72
2022-09-29T02:07:00.715Z,4.93
2022-09-29T02:09:32.492Z,4.93
2022-09-29T02:12:03.202Z,3.78
2022-09-29T02:14:34.458Z,4.47
2022-09-29T02:17:07.901Z,4.18
2022-09-29T02:19:39.758Z,5.13
2022-09-29T02:22:07.805Z,4.90
2022-09-29T02:24:35.909Z,4.75
2022-09-29T02:27:04.628Z,4.80
2022-09-29T02:29:34.418Z,4.90
2022-09-29T02:32:03.244Z,4.10
2022-09-29T02:34:33.457Z,4.15
2022-09-29T02:37:14.129Z,4.93
2022-09-29T02:39:49.670Z,3.90
2022-09-29T02:42:27.339Z,5.13
2022-09-29T02:45:16.631Z,5.25
2022-09-29T02:48:13.055Z,4.10
2022-09-29T02:51:07.660Z,5.40
2022-09-29T02:53:50.391Z,4.50
2022-09-29T02:56:27.891Z,4.53
2022-09-29T02:59:00.712Z,4.97
2022-09-29T03:01:32.288Z,4.50
2022-09-29T03:04:04.151Z,6.47
2022-09-29T03:06:32.556Z,4.33
2022-09-29T03:09:01.866Z,4.50
2022-09-29T03:11:29.846Z,4.40
2022-09-29T03:13:58.100Z,4.47
2022-09-29T03:16:26.150Z,5.60
2022-09-29T03:18:54.144Z,4.70
2022-09-29T03:21:22.113Z,4.75
2022-09-29T03:23:53.101Z,3.88
2022-09-29T03:26:24.914Z,4.40
2022-09-29T03:28:53.086Z,3.83
2022-09-29T03:31:21.365Z,4.55
2022-09-29T03:33:49.904Z,4.80
2022-09-29T03:36:17.915Z,4.68
2022-09-29T03:38:47.267Z,4.87
2022-09-29T03:41:15.662Z,4.50
2022-09-29T03:43:45.002Z,4.53
2022-09-29T03:46:13.149Z,3.65
2022-09-29T03:48:41.371Z,4.80
2022-09-29T03:51:09.353Z,4.45
2022-09-29T03:53:37.795Z,5.38
2022-09-29T03:56:06.214Z,4.57
2022-09-29T03:58:34.361Z,5.95
2022-09-29T04:01:03.757Z,7.38
2022-09-29T04:03:31.919Z,5.00
2022-09-29T04:06:00.054Z,5.80
2022-09-29T04:08:28.048Z,4.70
2022-09-29T04:10:56.003Z,4.57
2022-09-29T04:13:23.977Z,4.38
2022-09-29T04:15:52.057Z,4.67
2022-09-29T04:18:21.345Z,4.60
2022-09-29T04:20:49.405Z,4.43
2022-09-29T04:23:17.475Z,4.07
2022-09-29T04:25:46.238Z,4.82
2022-09-29T04:28:15.818Z,4.38
2022-09-29T04:30:43.794Z,4.50
2022-09-29T04:33:11.736Z,4.22
2022-09-29T04:35:41.130Z,5.05
2022-09-29T04:38:09.194Z,4.07
2022-09-29T04:40:37.706Z,4.43
2022-09-29T04:43:05.869Z,4.50
2022-09-29T04:45:33.915Z,4.70
2022-09-29T04:48:02.455Z,6.25
2022-09-29T04:50:30.412Z,4.65
2022-09-29T04:52:59.924Z,4.40
2022-09-29T04:55:28.374Z,4.40
2022-09-29T04:57:56.320Z,4.53
2022-09-29T05:00:24.583Z,4.38
2022-09-29T05:02:52.548Z,4.40
2022-09-29T05:05:20.511Z,5.40
2022-09-29T05:07:48.562Z,4.53
2022-09-29T05:10:18.102Z,4.57
2022-09-29T05:12:49.895Z,4.43
2022-09-29T05:15:21.092Z,4.50
2022-09-29T05:17:52.870Z,4.30
2022-09-29T05:20:20.973Z,7.03
2022-09-29T05:22:48.977Z,3.90
2022-09-29T05:25:18.440Z,4.00
2022-09-29T05:27:46.554Z,4.97
2022-09-29T05:30:15.394Z,4.38
2022-09-29T05:32:44.641Z,4.88
2022-09-29T05:35:12.723Z,6.63
2022-09-29T05:37:40.664Z,4.38
2022-09-29T05:40:10.175Z,4.30
2022-09-29T05:42:40.895Z,4.72
2022-09-29T05:45:10.885Z,4.50
2022-09-29T05:47:43.184Z,4.40
2022-09-29T05:50:11.581Z,4.38
2022-09-29T05:52:39.710Z,5.95
2022-09-29T05:55:10.902Z,4.30
2022-09-29T05:57:40.279Z,4.72
2022-09-29T06:00:09.394Z,4.60
2022-09-29T06:02:37.390Z,4.85
2022-09-29T06:05:05.853Z,5.03
2022-09-29T06:07:33.829Z,5.38
2022-09-29T06:10:01.866Z,5.90
2022-09-29T06:12:29.851Z,5.13
2022-09-29T06:14:59.134Z,6.13
2022-09-29T06:17:27.053Z,4.85
2022-09-29T06:19:54.996Z,6.20
2022-09-29T06:22:23.040Z,7.38
2022-09-29T06:24:51.000Z,6.00
2022-09-29T06:27:18.974Z,9.57
2022-09-29T06:29:47.054Z,5.78
2022-09-29T06:32:16.681Z,5.45
2022-09-29T06:34:58.908Z,5.20
2022-09-29T06:37:36.230Z,5.60
2022-09-29T06:40:10.787Z,5.40
2022-09-29T06:42:39.631Z,8.03
2022-09-29T06:45:09.153Z,9.23
2022-09-29T06:47:38.439Z,9.17
2022-09-29T06:50:18.454Z,7.95
2022-09-29T06:52:58.399Z,12.03
2022-09-29T06:55:29.612Z,10.10
2022-09-29T06:58:02.778Z,9.10
2022-09-29T07:00:32.881Z,9.10
2022-09-29T07:03:02.341Z,8.73
2022-09-29T07:05:32.130Z,11.07
2022-09-29T07:08:01.344Z,8.87
2022-09-29T07:10:29.923Z,9.10
2022-09-29T07:12:58.123Z,9.57
2022-09-29T07:15:31.703Z,10.57
2022-09-29T07:18:01.106Z,9.67
2022-09-29T07:20:31.509Z,8.67
2022-09-29T07:22:59.777Z,7.77
2022-09-29T07:25:50.499Z,7.33
2022-09-29T07:28:15.806Z,7.97
2022-09-29T07:30:43.784Z,7.97
2022-09-29T07:33:11.758Z,7.87
2022-09-29T07:35:41.217Z,8.43
2022-09-29T07:38:09.121Z,9.10
2022-09-29T07:40:37.936Z,9.77
2022-09-29T07:43:07.496Z,8.20
2022-09-29T07:45:35.545Z,8.17
2022-09-29T07:48:03.776Z,8.93
2022-09-29T07:50:32.384Z,7.40
2022-09-29T07:53:01.706Z,8.10
2022-09-29T07:55:29.695Z,7.60
2022-09-29T07:57:57.835Z,7.30
2022-09-29T08:00:25.815Z,8.07
2022-09-29T08:02:53.768Z,6.77
2022-09-29T08:05:21.799Z,6.47
2022-09-29T08:07:52.493Z,5.90
2022-09-29T08:10:22.134Z,5.43
2022-09-29T08:12:50.114Z,5.57
2022-09-29T08:15:18.226Z,5.40
2022-09-29T08:17:46.251Z,4.90
2022-09-29T08:20:14.892Z,4.83
2022-09-29T08:22:42.892Z,5.47
2022-09-29T08:25:11.036Z,5.23
2022-09-29T08:27:51.574Z,5.43
2022-09-29T08:30:22.569Z,4.80
2022-09-29T08:32:53.895Z,4.93
2022-09-29T08:35:22.262Z,4.17
2022-09-29T08:37:50.235Z,4.70
2022-09-29T08:40:19.110Z,4.53
2022-09-29T08:43:00.361Z,4.60
2022-09-29T08:45:33.108Z,3.97
2022-09-29T08:48:17.704Z,6.10
2022-09-29T08:50:53.566Z,4.67
2022-09-29T08:53:28.584Z,3.87
2022-09-29T08:56:01.292Z,3.67
2022-09-29T08:58:31.015Z,4.80
2022-09-29T09:01:06.576Z,4.47
2022-09-29T09:04:16.713Z,5.27
2022-09-29T09:06:56.228Z,4.23
2022-09-29T09:09:50.033Z,3.63
2022-09-29T09:12:44.347Z,3.63
2022-09-29T09:15:28.616Z,3.77
2022-09-29T09:18:34.225Z,3.27
2022-09-29T09:21:09.160Z,3.60
2022-09-29T09:23:50.773Z,3.93
2022-09-29T09:26:20.846Z,3.93
2022-09-29T09:28:54.444Z,5.60
2022-09-29T09:31:28.040Z,4.37
2022-09-29T09:34:06.181Z,2.70
2022-09-29T09:36:38.809Z,4.33
2022-09-29T09:39:14.997Z,3.53
2022-09-29T09:41:48.307Z,3.80
2022-09-29T09:44:20.093Z,3.87
2022-09-29T09:46:53.436Z,4.30
2022-09-29T09:49:24.610Z,4.33
2022-09-29T09:51:59.139Z,3.30
2022-09-29T09:54:31.647Z,4.03
2022-09-29T09:57:37.852Z,3.73
2022-09-29T10:00:11.562Z,3.00
2022-09-29T10:02:46.051Z,3.57
2022-09-29T10:05:16.782Z,3.63
2022-09-29T10:07:46.294Z,3.30
2022-09-29T10:10:20.233Z,3.10
2022-09-29T10:12:48.352Z,2.70
2022-09-29T10:15:23.933Z,3.30
2022-09-29T10:18:03.009Z,2.90
2022-09-29T10:20:35.406Z,2.73
2022-09-29T10:23:25.976Z,2.30
2022-09-29T10:25:59.330Z,2.80
2022-09-29T10:28:37.837Z,2.20
2022-09-29T10:31:17.889Z,2.27
2022-09-29T10:33:54.269Z,3.70
2022-09-29T10:36:23.780Z,2.30
2022-09-29T10:38:53.951Z,3.40
2022-09-29T10:41:21.942Z,4.10
2022-09-29T10:43:52.856Z,2.47
2022-09-29T10:46:47.354Z,2.70
2022-09-29T10:49:18.697Z,2.13
2022-09-29T10:51:58.985Z,1.73
2022-09-29T10:54:28.408Z,2.00
2022-09-29T10:56:57.991Z,1.97
2022-09-29T10:59:26.943Z,1.73
2022-09-29T11:01:58.433Z,1.40
2022-09-29T11:04:30.619Z,3.17
2022-09-29T11:07:07.491Z,1.30
2022-09-29T11:09:41.159Z,1.50
2022-09-29T11:12:29.331Z,1.67
2022-09-29T11:14:57.392Z,1.73
2022-09-29T11:17:26.791Z,1.43
2022-09-29T11:19:58.932Z,2.37
2022-09-29T11:22:55.545Z,3.23
2022-09-29T11:25:47.170Z,1.43
2022-09-29T11:28:47.537Z,2.50
2022-09-29T11:31:33.590Z,3.53
2022-09-29T11:34:16.109Z,2.17
2022-09-29T11:36:51.904Z,1.87
2022-09-29T11:39:30.967Z,1.40
2022-09-29T11:42:10.562Z,1.43
2022-09-29T11:45:00.617Z,1.33
2022-09-29T11:47:46.957Z,2.60
2022-09-29T11:50:24.849Z,1.33
2022-09-29T11:53:08.057Z,1.60
2022-09-29T11:55:52.699Z,5.07
2022-09-29T11:58:29.976Z,2.07
2022-09-29T12:01:07.866Z,1.23
2022-09-29T12:03:47.162Z,1.40
2022-09-29T12:06:33.186Z,1.87
2022-09-29T12:09:16.300Z,1.50
2022-09-29T12:12:21.639Z,1.43
2022-09-29T12:15:21.499Z,1.80
2022-09-29T12:17:55.838Z,0.97
2022-09-29T12:20:26.909Z,1.40
2022-09-29T12:22:58.266Z,1.80
2022-09-29T12:25:30.724Z,2.00
2022-09-29T12:28:04.041Z,1.70
2022-09-29T12:30:47.431Z,3.23
2022-09-29T12:33:21.402Z,1.10
2022-09-29T12:35:56.398Z,4.70
2022-09-29T12:38:28.121Z,1.73
2022-09-29T12:41:06.034Z,3.50
2022-09-29T12:43:42.423Z,1.63
2022-09-29T12:46:19.027Z,1.77
2022-09-29T12:48:53.800Z,1.37
2022-09-29T12:51:27.284Z,1.37
2022-09-29T12:54:09.990Z,2.63
2022-09-29T12:56:46.920Z,1.63
2022-09-29T12:59:23.898Z,2.67
2022-09-29T13:01:55.725Z,1.33
2022-09-29T13:04:56.308Z,1.40
2022-09-29T13:07:54.557Z,1.63
2022-09-29T13:10:38.983Z,2.63
2022-09-29T13:13:31.036Z,1.90
2022-09-29T13:16:09.212Z,1.27
2022-09-29T13:19:06.617Z,1.90
2022-09-29T13:21:40.950Z,1.70
2022-09-29T13:24:27.843Z,3.40
2022-09-29T13:27:10.742Z,1.10
2022-09-29T13:29:47.622Z,1.23
2022-09-29T13:32:16.463Z,1.70
2022-09-29T13:34:49.407Z,1.77
2022-09-29T13:37:19.731Z,1.30
2022-09-29T13:40:01.264Z,2.30
2022-09-29T13:42:42.334Z,2.10
2022-09-29T13:45:44.751Z,2.60
2022-09-29T13:48:52.755Z,1.80
2022-09-29T13:51:50.049Z,1.83
2022-09-29T13:54:39.336Z,8.27
2022-09-29T13:57:27.221Z,1.30
2022-09-29T14:00:18.132Z,1.70
2022-09-29T14:02:52.225Z,1.13
2022-09-29T14:05:40.695Z,2.20
2022-09-29T14:08:17.563Z,1.33
2022-09-29T14:10:48.319Z,1.93
2022-09-29T14:13:23.387Z,2.00
2022-09-29T14:15:58.776Z,1.47
2022-09-29T14:18:34.982Z,1.40
2022-09-29T14:21:05.752Z,1.80
2022-09-29T14:23:50.360Z,1.83
2022-09-29T14:26:44.092Z,1.13
2022-09-29T14:29:18.736Z,1.47
2022-09-29T14:31:53.002Z,1.47
2022-09-29T14:34:25.052Z,1.57
2022-09-29T14:36:55.731Z,2.20
2022-09-29T14:39:32.316Z,1.40
2022-09-29T14:42:01.181Z,1.30
2022-09-29T14:44:52.512Z,2.20
2022-09-29T14:47:54.286Z,2.13
2022-09-29T14:50:59.040Z,2.30
2022-09-29T14:53:41.931Z,3.63
2022-09-29T14:56:22.840Z,7.90
2022-09-29T14:59:03.428Z,3.00
2022-09-29T15:01:32.718Z,3.97
2022-09-29T15:04:08.194Z,2.10
2022-09-29T15:06:47.212Z,1.57
2022-09-29T15:09:18.662Z,3.90
2022-09-29T15:11:50.983Z,2.17
2022-09-29T15:14:24.793Z,2.47
2022-09-29T15:17:15.014Z,2.63
2022-09-29T15:19:55.283Z,2.60
2022-09-29T15:22:53.503Z,5.70
2022-09-29T15:25:29.757Z,3.13
2022-09-29T15:28:02.157Z,3.30
2022-09-29T15:30:31.412Z,2.87
2022-09-29T15:33:19.338Z,6.20
2022-09-29T15:35:51.131Z,2.10
2022-09-29T15:38:34.444Z,2.47
2022-09-29T15:41:06.246Z,4.30
2022-09-29T15:43:42.174Z,2.47
2022-09-29T15:46:18.078Z,3.50
2022-09-29T15:49:14.698Z,2.90
2022-09-29T15:51:45.124Z,2.47
2022-09-29T15:54:15.653Z,2.80
2022-09-29T15:57:02.632Z,2.63
2022-09-29T15:59:42.680Z,2.50
2022-09-29T16:02:23.651Z,3.00
2022-09-29T16:04:55.172Z,2.53
2022-09-29T16:07:27.994Z,5.83
2022-09-29T16:10:03.798Z,4.10
2022-09-29T16:12:36.517Z,3.03
2022-09-29T16:15:05.448Z,4.50
2022-09-29T16:17:33.557Z,3.53
2022-09-29T16:20:01.740Z,5.53
2022-09-29T16:22:29.833Z,4.10
2022-09-29T16:25:11.611Z,4.10
2022-09-29T16:27:57.180Z,3.33
2022-09-29T16:30:28.473Z,3.20
2022-09-29T16:33:03.199Z,3.73
2022-09-29T16:35:42.249Z,2.73
2022-09-29T16:38:20.154Z,3.20
2022-09-29T16:40:49.630Z,3.30
2022-09-29T16:43:27.453Z,3.87
2022-09-29T16:45:58.063Z,4.30
2022-09-29T16:48:28.863Z,4.67
2022-09-29T16:50:58.472Z,5.00
2022-09-29T16:53:29.955Z,4.40
2022-09-29T16:56:10.591Z,5.70
2022-09-29T16:58:38.597Z,6.80
2022-09-29T17:01:10.813Z,5.13
2022-09-29T17:03:40.692Z,5.77
2022-09-29T17:06:10.287Z,6.63
2022-09-29T17:08:38.256Z,6.10
2022-09-29T17:11:07.635Z,12.63
2022-09-29T17:13:36.702Z,5.20
2022-09-29T17:16:08.099Z,8.67
2022-09-29T17:18:36.093Z,10.27
2022-09-29T17:21:04.094Z,8.70
2022-09-29T17:23:32.968Z,8.53
2022-09-29T17:26:21.201Z,8.83
2022-09-29T17:28:49.544Z,7.53
2022-09-29T17:31:17.508Z,7.70
2022-09-29T17:33:46.119Z,8.07
2022-09-29T17:36:15.298Z,9.20
2022-09-29T17:38:43.339Z,8.20
2022-09-29T17:41:16.280Z,6.23
2022-09-29T17:43:47.591Z,7.77
2022-09-29T17:46:17.388Z,9.77
2022-09-29T17:48:45.431Z,12.87
2022-09-29T17:51:15.282Z,8.97
2022-09-29T17:53:43.297Z,4.87
2022-09-29T17:56:21.654Z,6.47
2022-09-29T17:58:49.890Z,5.30
2022-09-29T18:01:21.252Z,4.40
2022-09-29T18:03:49.747Z,6.00
2022-09-29T18:06:24.981Z,5.20
2022-09-29T18:08:54.210Z,5.00
2022-09-29T18:11:23.755Z,4.70
2022-09-29T18:13:52.111Z,3.60
2022-09-29T18:16:23.667Z,3.67
2022-09-29T18:18:58.007Z,3.60
2022-09-29T18:21:26.921Z,3.93
2022-09-29T18:23:54.967Z,4.30
2022-09-29T18:26:22.921Z,4.20
2022-09-29T18:28:51.550Z,3.77
2022-09-29T18:31:25.513Z,4.03
2022-09-29T18:33:54.334Z,6.80
2022-09-29T18:36:22.538Z,7.70
2022-09-29T18:38:50.526Z,6.50
2022-09-29T18:41:21.495Z,9.27
2022-09-29T18:43:50.078Z,7.30
2022-09-29T18:46:18.615Z,7.57
2022-09-29T18:48:48.014Z,9.60
2022-09-29T18:51:19.842Z,7.07
2022-09-29T18:53:49.672Z,5.30
2022-09-29T18:56:18.339Z,5.93
2022-09-29T18:58:46.367Z,4.97
2022-09-29T19:01:17.734Z,5.03
2022-09-29T19:03:47.076Z,7.60
2022-09-29T19:06:16.536Z,7.97
2022-09-29T19:08:46.723Z,9.03
2022-09-29T19:11:19.121Z,11.07
2022-09-29T19:13:47.605Z,9.50
2022-09-29T19:16:15.851Z,8.67
2022-09-29T19:18:44.131Z,8.60
2022-09-29T19:21:15.130Z,8.07
2022-09-29T19:23:43.889Z,7.20
2022-09-29T19:26:13.883Z,7.20
2022-09-29T19:28:42.407Z,7.50
2022-09-29T19:31:12.200Z,9.17
2022-09-29T19:33:41.337Z,6.47
2022-09-29T19:36:13.891Z,6.57
2022-09-29T19:38:43.724Z,5.63
2022-09-29T19:41:16.814Z,5.90
2022-09-29T19:43:45.675Z,6.60
2022-09-29T19:46:14.812Z,6.50
2022-09-29T19:48:43.440Z,5.57
2022-09-29T19:51:31.917Z,5.10
2022-09-29T19:54:14.379Z,5.40
2022-09-29T19:56:43.959Z,7.00
2022-09-29T19:59:13.986Z,7.30
2022-09-29T20:01:42.465Z,13.57
2022-09-29T20:04:11.649Z,10.27
2022-09-29T20:06:40.125Z,7.03
2022-09-29T20:09:10.308Z,9.03
2022-09-29T20:11:40.362Z,7.07
2022-09-29T20:14:10.155Z,6.00
2022-09-29T20:16:41.374Z,7.20
2022-09-29T20:19:11.553Z,6.33
2022-09-29T20:21:40.363Z,6.97
2022-09-29T20:24:12.026Z,6.43
2022-09-29T20:26:39.990Z,7.00
2022-09-29T20:29:08.440Z,6.80
2022-09-29T20:31:38.644Z,6.73
2022-09-29T20:34:07.630Z,6.60
2022-09-29T20:36:35.966Z,9.33
2022-09-29T20:39:04.554Z,6.80
2022-09-29T20:41:33.902Z,7.33
2022-09-29T20:44:02.124Z,7.00
2022-09-29T20:46:30.783Z,7.20
2022-09-29T20:49:02.929Z,7.30
2022-09-29T20:51:33.862Z,7.73
2022-09-29T20:54:04.025Z,7.90
2022-09-29T20:56:40.244Z,7.33
2022-09-29T20:59:10.742Z,8.20
2022-09-29T21:01:39.464Z,6.57
2022-09-29T21:04:09.082Z,7.33
2022-09-29T21:06:40.221Z,6.60
2022-09-29T21:09:11.254Z,7.37
2022-09-29T21:11:41.155Z,7.23
2022-09-29T21:14:10.869Z,7.73
2022-09-29T21:16:41.800Z,7.57
2022-09-29T21:19:10.518Z,7.40
2022-09-29T21:21:38.578Z,6.83
2022-09-29T21:24:07.077Z,7.70
2022-09-29T21:26:35.245Z,7.00
2022-09-29T21:29:05.083Z,8.60
2022-09-29T21:31:34.734Z,8.90
2022-09-29T21:34:05.165Z,7.93
2022-09-29T21:36:36.252Z,7.70
2022-09-29T21:39:08.657Z,7.37
2022-09-29T21:41:38.694Z,7.93
2022-09-29T21:44:11.446Z,7.43
2022-09-29T21:46:40.038Z,7.37
2022-09-29T21:49:09.323Z,7.03
2022-09-29T21:51:39.753Z,5.93
2022-09-29T21:54:12.095Z,6.43
2022-09-29T21:56:42.072Z,6.97
2022-09-29T21:59:12.907Z,8.63
2022-09-29T22:01:41.774Z,6.60
2022-09-29T22:04:10.606Z,6.63
2022-09-29T22:06:39.896Z,7.03
2022-09-29T22:09:09.607Z,6.97
2022-09-29T22:11:39.229Z,8.60
2022-09-29T22:14:08.265Z,6.70
2022-09-29T22:16:37.604Z,7.10
2022-09-29T22:19:32.429Z,6.70
2022-09-29T22:21:55.029Z,32.67
2022-09-29T22:24:23.968Z,11.87
2022-09-29T22:26:52.309Z,10.03
2022-09-29T22:29:20.379Z,13.57
2022-09-29T22:31:49.828Z,15.03
2022-09-29T22:34:18.050Z,14.70
2022-09-29T22:36:46.089Z,18.10
2022-09-29T22:39:14.241Z,15.63
2022-09-29T22:41:43.089Z,14.57
2022-09-29T22:44:11.135Z,9.67
2022-09-29T22:46:39.181Z,10.80
2022-09-29T22:49:08.610Z,11.53
2022-09-29T22:51:36.643Z,9.60
2022-09-29T22:54:04.741Z,9.73
2022-09-29T22:56:32.747Z,9.83
2022-09-29T22:59:03.054Z,9.70
2022-09-29T23:01:31.149Z,9.97
2022-09-29T23:03:59.240Z,8.63
2022-09-29T23:06:28.616Z,8.60
2022-09-29T23:08:56.755Z,11.00
2022-09-29T23:11:25.144Z,8.00
2022-09-29T23:13:53.794Z,8.20
2022-09-29T23:16:22.013Z,8.67
2022-09-29T23:18:54.137Z,8.90
2022-09-29T23:21:23.211Z,8.90
2022-09-29T23:23:56.216Z,11.93
2022-09-29T23:26:25.135Z,9.20
2022-09-29T23:28:55.240Z,7.93
2022-09-29T23:31:23.609Z,8.37
2022-09-29T23:33:55.425Z,7.70
2022-09-29T23:36:24.289Z,7.63
2022-09-29T23:39:09.932Z,8.27
2022-09-29T23:41:42.343Z,8.23
2022-09-29T23:44:11.401Z,7.10
2022-09-29T23:46:40.753Z,8.60
2022-09-29T23:49:10.246Z,9.20
2022-09-29T23:51:40.092Z,7.50
2022-09-29T23:54:09.026Z,6.93
2022-09-29T23:56:37.087Z,8.33
2022-09-29T23:59:07.196Z,7.50
